sensor_id;sensor_type;location;lat;lon;timestamp;P1;durP1;ratioP1;P2;durP2;ratioP2
63005;SDS011;53704;52.532;6.426;2023-04-24T00:02:16;0.85;;;0.85;;
63005;SDS011;53704;52.532;6.426;2023-04-24T00:04:41;0.90;;;0.90;;
63005;SDS011;53704;52.532;6.426;2023-04-24T00:07:11;0.73;;;0.73;;
63005;SDS011;53704;52.532;6.426;2023-04-24T00:09:37;0.80;;;0.80;;
63005;SDS011;53704;52.532;6.426;2023-04-24T00:12:10;1.17;;;1.08;;
63005;SDS011;53704;52.532;6.426;2023-04-24T00:14:35;0.80;;;0.80;;
63005;SDS011;53704;52.532;6.426;2023-04-24T00:17:01;1.10;;;1.08;;
63005;SDS011;53704;52.532;6.426;2023-04-24T00:19:29;0.80;;;0.80;;
63005;SDS011;53704;52.532;6.426;2023-04-24T00:21:55;1.20;;;1.10;;
63005;SDS011;53704;52.532;6.426;2023-04-24T00:24:20;1.40;;;1.40;;
63005;SDS011;53704;52.532;6.426;2023-04-24T00:26:46;4.80;;;1.10;;
63005;SDS011;53704;52.532;6.426;2023-04-24T00:29:12;0.70;;;0.70;;
63005;SDS011;53704;52.532;6.426;2023-04-24T00:31:37;2.28;;;1.13;;
63005;SDS011;53704;52.532;6.426;2023-04-24T00:34:03;4.97;;;1.00;;
63005;SDS011;53704;52.532;6.426;2023-04-24T00:36:29;1.65;;;1.00;;
63005;SDS011;53704;52.532;6.426;2023-04-24T00:38:55;3.53;;;2.03;;
63005;SDS011;53704;52.532;6.426;2023-04-24T00:41:21;0.82;;;0.82;;
63005;SDS011;53704;52.532;6.426;2023-04-24T00:43:48;1.60;;;0.88;;
63005;SDS011;53704;52.532;6.426;2023-04-24T00:46:14;1.20;;;1.10;;
63005;SDS011;53704;52.532;6.426;2023-04-24T00:48:39;6.32;;;1.35;;
63005;SDS011;53704;52.532;6.426;2023-04-24T00:51:05;0.95;;;0.95;;
63005;SDS011;53704;52.532;6.426;2023-04-24T00:53:31;1.00;;;1.00;;
63005;SDS011;53704;52.532;6.426;2023-04-24T00:55:56;1.10;;;1.10;;
63005;SDS011;53704;52.532;6.426;2023-04-24T00:58:22;1.35;;;1.25;;
63005;SDS011;53704;52.532;6.426;2023-04-24T01:00:50;1.23;;;1.13;;
63005;SDS011;53704;52.532;6.426;2023-04-24T01:03:18;1.70;;;1.60;;
63005;SDS011;53704;52.532;6.426;2023-04-24T01:05:47;1.60;;;1.50;;
63005;SDS011;53704;52.532;6.426;2023-04-24T01:08:14;1.80;;;1.75;;
63005;SDS011;53704;52.532;6.426;2023-04-24T01:10:40;4.10;;;1.83;;
63005;SDS011;53704;52.532;6.426;2023-04-24T01:13:07;2.65;;;2.03;;
63005;SDS011;53704;52.532;6.426;2023-04-24T01:15:33;2.40;;;2.30;;
63005;SDS011;53704;52.532;6.426;2023-04-24T01:17:59;2.47;;;2.38;;
63005;SDS011;53704;52.532;6.426;2023-04-24T01:20:24;1.98;;;1.88;;
63005;SDS011;53704;52.532;6.426;2023-04-24T01:22:51;2.38;;;2.28;;
63005;SDS011;53704;52.532;6.426;2023-04-24T01:25:17;5.13;;;2.90;;
63005;SDS011;53704;52.532;6.426;2023-04-24T01:27:43;2.47;;;2.28;;
63005;SDS011;53704;52.532;6.426;2023-04-24T01:30:08;2.83;;;2.65;;
63005;SDS011;53704;52.532;6.426;2023-04-24T01:32:35;3.15;;;2.70;;
63005;SDS011;53704;52.532;6.426;2023-04-24T01:35:01;2.95;;;2.85;;
63005;SDS011;53704;52.532;6.426;2023-04-24T01:37:27;3.25;;;3.05;;
63005;SDS011;53704;52.532;6.426;2023-04-24T01:39:52;2.85;;;2.65;;
63005;SDS011;53704;52.532;6.426;2023-04-24T01:42:18;3.25;;;3.15;;
63005;SDS011;53704;52.532;6.426;2023-04-24T01:44:44;3.13;;;3.03;;
63005;SDS011;53704;52.532;6.426;2023-04-24T01:47:10;4.07;;;3.45;;
63005;SDS011;53704;52.532;6.426;2023-04-24T01:49:37;3.30;;;3.20;;
63005;SDS011;53704;52.532;6.426;2023-04-24T01:52:03;3.20;;;2.95;;
63005;SDS011;53704;52.532;6.426;2023-04-24T01:54:29;3.50;;;3.30;;
63005;SDS011;53704;52.532;6.426;2023-04-24T01:56:55;3.55;;;3.35;;
63005;SDS011;53704;52.532;6.426;2023-04-24T01:59:20;3.13;;;3.03;;
63005;SDS011;53704;52.532;6.426;2023-04-24T02:01:51;4.18;;;2.80;;
63005;SDS011;53704;52.532;6.426;2023-04-24T02:04:16;3.00;;;2.85;;
63005;SDS011;53704;52.532;6.426;2023-04-24T02:06:41;3.20;;;3.00;;
63005;SDS011;53704;52.532;6.426;2023-04-24T02:09:07;2.80;;;2.63;;
63005;SDS011;53704;52.532;6.426;2023-04-24T02:11:33;2.90;;;2.67;;
63005;SDS011;53704;52.532;6.426;2023-04-24T02:13:58;4.53;;;2.40;;
63005;SDS011;53704;52.532;6.426;2023-04-24T02:16:24;2.65;;;2.55;;
63005;SDS011;53704;52.532;6.426;2023-04-24T02:18:49;2.65;;;2.55;;
63005;SDS011;53704;52.532;6.426;2023-04-24T02:21:15;3.00;;;2.90;;
63005;SDS011;53704;52.532;6.426;2023-04-24T02:23:40;2.65;;;2.55;;
63005;SDS011;53704;52.532;6.426;2023-04-24T02:26:06;3.22;;;3.03;;
63005;SDS011;53704;52.532;6.426;2023-04-24T02:28:31;3.13;;;2.90;;
63005;SDS011;53704;52.532;6.426;2023-04-24T02:30:57;2.65;;;2.55;;
63005;SDS011;53704;52.532;6.426;2023-04-24T02:33:23;2.78;;;2.67;;
63005;SDS011;53704;52.532;6.426;2023-04-24T02:35:49;3.50;;;3.30;;
63005;SDS011;53704;52.532;6.426;2023-04-24T02:38:14;6.05;;;3.55;;
63005;SDS011;53704;52.532;6.426;2023-04-24T02:40:40;3.10;;;2.90;;
63005;SDS011;53704;52.532;6.426;2023-04-24T02:43:05;3.40;;;3.20;;
63005;SDS011;53704;52.532;6.426;2023-04-24T02:45:31;2.95;;;2.85;;
63005;SDS011;53704;52.532;6.426;2023-04-24T02:47:56;3.40;;;3.30;;
63005;SDS011;53704;52.532;6.426;2023-04-24T02:50:24;4.00;;;3.70;;
63005;SDS011;53704;52.532;6.426;2023-04-24T02:52:49;3.97;;;3.78;;
63005;SDS011;53704;52.532;6.426;2023-04-24T02:55:15;3.92;;;3.72;;
63005;SDS011;53704;52.532;6.426;2023-04-24T02:57:40;3.95;;;3.83;;
63005;SDS011;53704;52.532;6.426;2023-04-24T03:00:06;4.65;;;4.45;;
63005;SDS011;53704;52.532;6.426;2023-04-24T03:02:32;4.28;;;4.13;;
63005;SDS011;53704;52.532;6.426;2023-04-24T03:04:57;4.85;;;4.45;;
63005;SDS011;53704;52.532;6.426;2023-04-24T03:07:22;4.68;;;4.38;;
63005;SDS011;53704;52.532;6.426;2023-04-24T03:09:49;5.00;;;4.60;;
63005;SDS011;53704;52.532;6.426;2023-04-24T03:12:14;5.70;;;4.65;;
63005;SDS011;53704;52.532;6.426;2023-04-24T03:14:42;4.93;;;4.72;;
63005;SDS011;53704;52.532;6.426;2023-04-24T03:17:10;5.25;;;4.72;;
63005;SDS011;53704;52.532;6.426;2023-04-24T03:19:36;7.07;;;4.93;;
63005;SDS011;53704;52.532;6.426;2023-04-24T03:22:01;5.13;;;4.72;;
63005;SDS011;53704;52.532;6.426;2023-04-24T03:24:28;5.35;;;5.13;;
63005;SDS011;53704;52.532;6.426;2023-04-24T03:26:53;5.20;;;4.90;;
63005;SDS011;53704;52.532;6.426;2023-04-24T03:29:18;5.25;;;4.63;;
63005;SDS011;53704;52.532;6.426;2023-04-24T03:31:44;6.85;;;5.50;;
63005;SDS011;53704;52.532;6.426;2023-04-24T03:34:09;5.88;;;5.57;;
63005;SDS011;53704;52.532;6.426;2023-04-24T03:36:35;6.65;;;6.07;;
63005;SDS011;53704;52.532;6.426;2023-04-24T03:39:00;7.20;;;6.60;;
63005;SDS011;53704;52.532;6.426;2023-04-24T03:41:25;6.60;;;6.30;;
63005;SDS011;53704;52.532;6.426;2023-04-24T03:43:51;7.63;;;7.03;;
63005;SDS011;53704;52.532;6.426;2023-04-24T03:46:16;8.02;;;7.45;;
63005;SDS011;53704;52.532;6.426;2023-04-24T03:48:42;7.05;;;6.65;;
63005;SDS011;53704;52.532;6.426;2023-04-24T03:51:07;7.85;;;7.05;;
63005;SDS011;53704;52.532;6.426;2023-04-24T03:53:33;7.90;;;7.28;;
63005;SDS011;53704;52.532;6.426;2023-04-24T03:55:58;7.50;;;6.93;;
63005;SDS011;53704;52.532;6.426;2023-04-24T03:58:24;6.57;;;6.28;;
63005;SDS011;53704;52.532;6.426;2023-04-24T04:00:49;7.40;;;6.82;;
63005;SDS011;53704;52.532;6.426;2023-04-24T04:03:15;6.78;;;6.28;;
63005;SDS011;53704;52.532;6.426;2023-04-24T04:05:41;7.65;;;7.15;;
63005;SDS011;53704;52.532;6.426;2023-04-24T04:08:06;7.72;;;7.07;;
63005;SDS011;53704;52.532;6.426;2023-04-24T04:10:31;8.07;;;6.90;;
63005;SDS011;53704;52.532;6.426;2023-04-24T04:12:57;7.25;;;6.95;;
63005;SDS011;53704;52.532;6.426;2023-04-24T04:15:22;7.93;;;7.22;;
63005;SDS011;53704;52.532;6.426;2023-04-24T04:17:48;7.10;;;6.65;;
63005;SDS011;53704;52.532;6.426;2023-04-24T04:20:13;7.60;;;7.20;;
63005;SDS011;53704;52.532;6.426;2023-04-24T04:22:39;7.70;;;7.00;;
63005;SDS011;53704;52.532;6.426;2023-04-24T04:25:04;7.47;;;6.88;;
63005;SDS011;53704;52.532;6.426;2023-04-24T04:27:30;7.68;;;7.13;;
63005;SDS011;53704;52.532;6.426;2023-04-24T04:29:58;7.80;;;6.63;;
63005;SDS011;53704;52.532;6.426;2023-04-24T04:32:29;7.32;;;6.80;;
63005;SDS011;53704;52.532;6.426;2023-04-24T04:35:00;7.40;;;6.90;;
63005;SDS011;53704;52.532;6.426;2023-04-24T04:37:29;7.32;;;6.55;;
63005;SDS011;53704;52.532;6.426;2023-04-24T04:39:56;6.32;;;5.93;;
63005;SDS011;53704;52.532;6.426;2023-04-24T04:42:23;6.45;;;6.05;;
63005;SDS011;53704;52.532;6.426;2023-04-24T04:44:55;6.40;;;5.97;;
63005;SDS011;53704;52.532;6.426;2023-04-24T04:47:22;5.85;;;5.55;;
63005;SDS011;53704;52.532;6.426;2023-04-24T04:49:48;6.15;;;5.85;;
63005;SDS011;53704;52.532;6.426;2023-04-24T04:52:13;5.80;;;5.28;;
63005;SDS011;53704;52.532;6.426;2023-04-24T04:54:39;6.00;;;5.70;;
63005;SDS011;53704;52.532;6.426;2023-04-24T04:57:07;5.70;;;5.40;;
63005;SDS011;53704;52.532;6.426;2023-04-24T04:59:33;6.07;;;5.60;;
63005;SDS011;53704;52.532;6.426;2023-04-24T05:01:58;6.25;;;4.95;;
63005;SDS011;53704;52.532;6.426;2023-04-24T05:04:23;5.47;;;5.03;;
63005;SDS011;53704;52.532;6.426;2023-04-24T05:06:49;5.60;;;5.15;;
63005;SDS011;53704;52.532;6.426;2023-04-24T05:09:16;6.88;;;5.43;;
63005;SDS011;53704;52.532;6.426;2023-04-24T05:11:41;5.40;;;5.05;;
63005;SDS011;53704;52.532;6.426;2023-04-24T05:14:07;12.80;;;5.82;;
63005;SDS011;53704;52.532;6.426;2023-04-24T05:16:33;6.05;;;5.75;;
63005;SDS011;53704;52.532;6.426;2023-04-24T05:18:58;5.68;;;5.20;;
63005;SDS011;53704;52.532;6.426;2023-04-24T05:21:24;5.68;;;5.28;;
63005;SDS011;53704;52.532;6.426;2023-04-24T05:23:50;7.00;;;5.43;;
63005;SDS011;53704;52.532;6.426;2023-04-24T05:26:15;14.95;;;5.97;;
63005;SDS011;53704;52.532;6.426;2023-04-24T05:28:41;5.75;;;5.40;;
63005;SDS011;53704;52.532;6.426;2023-04-24T05:31:06;5.90;;;5.28;;
63005;SDS011;53704;52.532;6.426;2023-04-24T05:33:32;10.30;;;4.88;;
63005;SDS011;53704;52.532;6.426;2023-04-24T05:35:57;9.57;;;5.00;;
63005;SDS011;53704;52.532;6.426;2023-04-24T05:38:23;6.00;;;5.25;;
63005;SDS011;53704;52.532;6.426;2023-04-24T05:40:48;5.25;;;4.85;;
63005;SDS011;53704;52.532;6.426;2023-04-24T05:43:13;7.28;;;5.05;;
63005;SDS011;53704;52.532;6.426;2023-04-24T05:45:39;5.25;;;4.90;;
63005;SDS011;53704;52.532;6.426;2023-04-24T05:48:04;5.00;;;4.53;;
63005;SDS011;53704;52.532;6.426;2023-04-24T05:50:30;8.65;;;4.47;;
63005;SDS011;53704;52.532;6.426;2023-04-24T05:52:56;10.50;;;4.55;;
63005;SDS011;53704;52.532;6.426;2023-04-24T05:55:26;4.90;;;4.60;;
63005;SDS011;53704;52.532;6.426;2023-04-24T05:57:52;5.93;;;4.63;;
63005;SDS011;53704;52.532;6.426;2023-04-24T06:00:17;4.60;;;4.40;;
63005;SDS011;53704;52.532;6.426;2023-04-24T06:02:44;4.70;;;4.40;;
63005;SDS011;53704;52.532;6.426;2023-04-24T06:05:11;6.35;;;4.53;;
63005;SDS011;53704;52.532;6.426;2023-04-24T06:07:36;5.45;;;5.05;;
63005;SDS011;53704;52.532;6.426;2023-04-24T06:10:02;4.93;;;4.55;;
63005;SDS011;53704;52.532;6.426;2023-04-24T06:12:28;4.35;;;4.05;;
63005;SDS011;53704;52.532;6.426;2023-04-24T06:14:53;5.57;;;4.93;;
63005;SDS011;53704;52.532;6.426;2023-04-24T06:17:20;4.72;;;4.53;;
63005;SDS011;53704;52.532;6.426;2023-04-24T06:19:46;6.13;;;4.32;;
63005;SDS011;53704;52.532;6.426;2023-04-24T06:22:12;4.50;;;4.18;;
63005;SDS011;53704;52.532;6.426;2023-04-24T06:24:37;4.97;;;4.68;;
63005;SDS011;53704;52.532;6.426;2023-04-24T06:27:02;4.60;;;4.30;;
63005;SDS011;53704;52.532;6.426;2023-04-24T06:29:28;4.85;;;4.28;;
63005;SDS011;53704;52.532;6.426;2023-04-24T06:31:53;6.30;;;4.18;;
63005;SDS011;53704;52.532;6.426;2023-04-24T06:34:19;4.13;;;3.92;;
63005;SDS011;53704;52.532;6.426;2023-04-24T06:36:46;3.55;;;3.42;;
63005;SDS011;53704;52.532;6.426;2023-04-24T06:39:12;3.65;;;3.35;;
63005;SDS011;53704;52.532;6.426;2023-04-24T06:41:37;4.05;;;3.67;;
63005;SDS011;53704;52.532;6.426;2023-04-24T06:44:06;3.58;;;3.40;;
63005;SDS011;53704;52.532;6.426;2023-04-24T06:46:31;4.03;;;3.67;;
63005;SDS011;53704;52.532;6.426;2023-04-24T06:48:57;3.97;;;3.63;;
63005;SDS011;53704;52.532;6.426;2023-04-24T06:51:25;6.25;;;3.35;;
63005;SDS011;53704;52.532;6.426;2023-04-24T06:53:52;3.33;;;3.20;;
63005;SDS011;53704;52.532;6.426;2023-04-24T06:56:18;3.45;;;3.25;;
63005;SDS011;53704;52.532;6.426;2023-04-24T06:58:45;4.03;;;3.70;;
63005;SDS011;53704;52.532;6.426;2023-04-24T07:01:11;4.40;;;4.10;;
63005;SDS011;53704;52.532;6.426;2023-04-24T07:03:36;3.45;;;3.28;;
63005;SDS011;53704;52.532;6.426;2023-04-24T07:06:02;10.40;;;3.95;;
63005;SDS011;53704;52.532;6.426;2023-04-24T07:08:28;6.22;;;3.53;;
63005;SDS011;53704;52.532;6.426;2023-04-24T07:10:55;3.13;;;2.83;;
63005;SDS011;53704;52.532;6.426;2023-04-24T07:13:21;4.72;;;3.10;;
63005;SDS011;53704;52.532;6.426;2023-04-24T07:15:47;2.67;;;2.47;;
63005;SDS011;53704;52.532;6.426;2023-04-24T07:18:15;3.03;;;2.75;;
63005;SDS011;53704;52.532;6.426;2023-04-24T07:20:40;10.73;;;2.58;;
63005;SDS011;53704;52.532;6.426;2023-04-24T07:23:06;7.43;;;2.90;;
63005;SDS011;53704;52.532;6.426;2023-04-24T07:25:31;2.72;;;2.53;;
63005;SDS011;53704;52.532;6.426;2023-04-24T07:27:57;5.72;;;2.28;;
63005;SDS011;53704;52.532;6.426;2023-04-24T07:30:23;5.38;;;3.13;;
63005;SDS011;53704;52.532;6.426;2023-04-24T07:32:48;7.38;;;3.03;;
63005;SDS011;53704;52.532;6.426;2023-04-24T07:35:14;9.50;;;3.88;;
63005;SDS011;53704;52.532;6.426;2023-04-24T07:37:39;5.15;;;3.63;;
63005;SDS011;53704;52.532;6.426;2023-04-24T07:40:05;3.75;;;3.55;;
63005;SDS011;53704;52.532;6.426;2023-04-24T07:42:34;3.97;;;3.63;;
63005;SDS011;53704;52.532;6.426;2023-04-24T07:44:59;5.88;;;3.60;;
63005;SDS011;53704;52.532;6.426;2023-04-24T07:47:25;5.05;;;3.30;;
63005;SDS011;53704;52.532;6.426;2023-04-24T07:49:50;7.63;;;3.08;;
63005;SDS011;53704;52.532;6.426;2023-04-24T07:52:16;3.28;;;2.92;;
63005;SDS011;53704;52.532;6.426;2023-04-24T07:54:41;3.80;;;3.17;;
63005;SDS011;53704;52.532;6.426;2023-04-24T07:57:07;3.88;;;3.30;;
63005;SDS011;53704;52.532;6.426;2023-04-24T07:59:33;6.65;;;3.45;;
63005;SDS011;53704;52.532;6.426;2023-04-24T08:01:59;4.15;;;3.85;;
63005;SDS011;53704;52.532;6.426;2023-04-24T08:04:26;5.63;;;3.65;;
63005;SDS011;53704;52.532;6.426;2023-04-24T08:06:51;7.10;;;3.90;;
63005;SDS011;53704;52.532;6.426;2023-04-24T08:09:17;9.95;;;8.02;;
63005;SDS011;53704;52.532;6.426;2023-04-24T08:11:43;5.78;;;3.75;;
63005;SDS011;53704;52.532;6.426;2023-04-24T08:14:10;4.75;;;3.88;;
63005;SDS011;53704;52.532;6.426;2023-04-24T08:16:37;8.18;;;3.70;;
63005;SDS011;53704;52.532;6.426;2023-04-24T08:19:02;6.88;;;3.30;;
63005;SDS011;53704;52.532;6.426;2023-04-24T08:21:28;5.63;;;5.10;;
63005;SDS011;53704;52.532;6.426;2023-04-24T08:23:53;12.20;;;7.68;;
63005;SDS011;53704;52.532;6.426;2023-04-24T08:26:19;10.88;;;5.57;;
63005;SDS011;53704;52.532;6.426;2023-04-24T08:28:45;7.90;;;6.20;;
63005;SDS011;53704;52.532;6.426;2023-04-24T08:31:11;16.05;;;9.25;;
63005;SDS011;53704;52.532;6.426;2023-04-24T08:33:36;13.90;;;9.82;;
63005;SDS011;53704;52.532;6.426;2023-04-24T08:36:02;24.73;;;12.52;;
63005;SDS011;53704;52.532;6.426;2023-04-24T08:38:28;19.02;;;10.77;;
63005;SDS011;53704;52.532;6.426;2023-04-24T08:40:54;31.52;;;15.13;;
63005;SDS011;53704;52.532;6.426;2023-04-24T08:43:21;21.35;;;13.95;;
63005;SDS011;53704;52.532;6.426;2023-04-24T08:45:48;28.95;;;17.52;;
63005;SDS011;53704;52.532;6.426;2023-04-24T08:48:13;21.63;;;15.35;;
63005;SDS011;53704;52.532;6.426;2023-04-24T08:50:40;27.92;;;15.68;;
63005;SDS011;53704;52.532;6.426;2023-04-24T08:53:08;26.88;;;15.95;;
63005;SDS011;53704;52.532;6.426;2023-04-24T08:55:33;31.70;;;17.25;;
63005;SDS011;53704;52.532;6.426;2023-04-24T08:58:00;26.70;;;15.60;;
63005;SDS011;53704;52.532;6.426;2023-04-24T09:00:27;28.45;;;15.90;;
63005;SDS011;53704;52.532;6.426;2023-04-24T09:02:53;24.88;;;15.13;;
63005;SDS011;53704;52.532;6.426;2023-04-24T09:05:21;23.02;;;12.35;;
63005;SDS011;53704;52.532;6.426;2023-04-24T09:07:52;24.33;;;12.23;;
63005;SDS011;53704;52.532;6.426;2023-04-24T09:10:19;19.25;;;11.13;;
63005;SDS011;53704;52.532;6.426;2023-04-24T09:12:46;22.88;;;11.10;;
63005;SDS011;53704;52.532;6.426;2023-04-24T09:15:11;29.45;;;11.98;;
63005;SDS011;53704;52.532;6.426;2023-04-24T09:17:38;24.92;;;11.38;;
63005;SDS011;53704;52.532;6.426;2023-04-24T09:20:06;18.40;;;11.55;;
63005;SDS011;53704;52.532;6.426;2023-04-24T09:22:32;23.42;;;12.43;;
63005;SDS011;53704;52.532;6.426;2023-04-24T09:25:04;30.30;;;12.57;;
63005;SDS011;53704;52.532;6.426;2023-04-24T09:27:32;26.05;;;12.52;;
63005;SDS011;53704;52.532;6.426;2023-04-24T09:29:58;25.40;;;12.82;;
63005;SDS011;53704;52.532;6.426;2023-04-24T09:32:25;32.63;;;13.25;;
63005;SDS011;53704;52.532;6.426;2023-04-24T09:35:04;17.45;;;11.85;;
63005;SDS011;53704;52.532;6.426;2023-04-24T09:37:34;35.05;;;12.95;;
63005;SDS011;53704;52.532;6.426;2023-04-24T09:40:07;26.33;;;12.70;;
63005;SDS011;53704;52.532;6.426;2023-04-24T09:42:54;33.97;;;12.93;;
63005;SDS011;53704;52.532;6.426;2023-04-24T09:45:34;28.38;;;11.93;;
63005;SDS011;53704;52.532;6.426;2023-04-24T09:48:01;27.25;;;11.65;;
63005;SDS011;53704;52.532;6.426;2023-04-24T09:50:29;20.15;;;10.50;;
63005;SDS011;53704;52.532;6.426;2023-04-24T09:53:05;13.57;;;8.63;;
63005;SDS011;53704;52.532;6.426;2023-04-24T09:55:38;16.10;;;8.60;;
63005;SDS011;53704;52.532;6.426;2023-04-24T09:58:07;20.67;;;6.88;;
63005;SDS011;53704;52.532;6.426;2023-04-24T10:00:33;44.25;;;27.50;;
63005;SDS011;53704;52.532;6.426;2023-04-24T10:03:02;65.47;;;36.80;;
63005;SDS011;53704;52.532;6.426;2023-04-24T10:08:01;52.88;;;27.50;;
63005;SDS011;53704;52.532;6.426;2023-04-24T10:10:31;32.10;;;18.05;;
63005;SDS011;53704;52.532;6.426;2023-04-24T10:13:01;19.10;;;8.45;;
63005;SDS011;53704;52.532;6.426;2023-04-24T10:15:27;15.98;;;6.43;;
63005;SDS011;53704;52.532;6.426;2023-04-24T10:17:53;21.83;;;6.75;;
63005;SDS011;53704;52.532;6.426;2023-04-24T10:20:22;13.65;;;5.10;;
63005;SDS011;53704;52.532;6.426;2023-04-24T10:22:50;14.32;;;6.20;;
63005;SDS011;53704;52.532;6.426;2023-04-24T10:25:20;9.63;;;4.18;;
63005;SDS011;53704;52.532;6.426;2023-04-24T10:27:47;10.52;;;4.15;;
63005;SDS011;53704;52.532;6.426;2023-04-24T10:30:14;13.15;;;4.03;;
63005;SDS011;53704;52.532;6.426;2023-04-24T10:32:41;20.35;;;4.50;;
63005;SDS011;53704;52.532;6.426;2023-04-24T10:35:07;12.52;;;4.38;;
63005;SDS011;53704;52.532;6.426;2023-04-24T10:37:35;11.65;;;3.70;;
63005;SDS011;53704;52.532;6.426;2023-04-24T10:40:04;24.10;;;4.60;;
63005;SDS011;53704;52.532;6.426;2023-04-24T10:42:32;13.10;;;4.32;;
63005;SDS011;53704;52.532;6.426;2023-04-24T10:44:58;21.40;;;4.15;;
63005;SDS011;53704;52.532;6.426;2023-04-24T10:47:23;12.85;;;4.38;;
63005;SDS011;53704;52.532;6.426;2023-04-24T10:49:50;12.10;;;4.22;;
63005;SDS011;53704;52.532;6.426;2023-04-24T10:52:16;14.57;;;5.20;;
63005;SDS011;53704;52.532;6.426;2023-04-24T10:54:45;17.35;;;4.35;;
63005;SDS011;53704;52.532;6.426;2023-04-24T11:02:39;24.77;;;5.43;;
63005;SDS011;53704;52.532;6.426;2023-04-24T11:05:08;18.38;;;4.68;;
63005;SDS011;53704;52.532;6.426;2023-04-24T11:10:54;13.93;;;2.90;;
63005;SDS011;53704;52.532;6.426;2023-04-24T11:13:25;12.43;;;2.80;;
63005;SDS011;53704;52.532;6.426;2023-04-24T11:18:51;14.93;;;3.25;;
63005;SDS011;53704;52.532;6.426;2023-04-24T11:21:25;8.43;;;2.60;;
63005;SDS011;53704;52.532;6.426;2023-04-24T11:23:51;14.95;;;2.25;;
63005;SDS011;53704;52.532;6.426;2023-04-24T11:26:26;14.38;;;2.17;;
63005;SDS011;53704;52.532;6.426;2023-04-24T11:29:05;10.98;;;2.80;;
63005;SDS011;53704;52.532;6.426;2023-04-24T11:31:39;5.63;;;2.17;;
63005;SDS011;53704;52.532;6.426;2023-04-24T11:34:10;7.03;;;2.57;;
63005;SDS011;53704;52.532;6.426;2023-04-24T11:36:38;11.90;;;3.42;;
63005;SDS011;53704;52.532;6.426;2023-04-24T11:39:05;10.70;;;2.92;;
63005;SDS011;53704;52.532;6.426;2023-04-24T11:41:31;14.82;;;3.45;;
63005;SDS011;53704;52.532;6.426;2023-04-24T11:43:58;9.57;;;2.45;;
63005;SDS011;53704;52.532;6.426;2023-04-24T11:46:27;8.90;;;2.72;;
63005;SDS011;53704;52.532;6.426;2023-04-24T11:48:53;10.52;;;3.08;;
63005;SDS011;53704;52.532;6.426;2023-04-24T11:51:19;13.18;;;2.70;;
63005;SDS011;53704;52.532;6.426;2023-04-24T11:53:44;12.30;;;3.67;;
63005;SDS011;53704;52.532;6.426;2023-04-24T11:56:10;9.27;;;2.45;;
63005;SDS011;53704;52.532;6.426;2023-04-24T11:58:36;9.48;;;1.98;;
63005;SDS011;53704;52.532;6.426;2023-04-24T12:01:03;7.43;;;2.10;;
63005;SDS011;53704;52.532;6.426;2023-04-24T12:03:29;15.68;;;3.83;;
63005;SDS011;53704;52.532;6.426;2023-04-24T12:06:04;5.78;;;2.80;;
63005;SDS011;53704;52.532;6.426;2023-04-24T12:08:32;10.65;;;3.70;;
63005;SDS011;53704;52.532;6.426;2023-04-24T12:11:02;7.15;;;1.88;;
63005;SDS011;53704;52.532;6.426;2023-04-24T12:13:29;11.23;;;2.13;;
63005;SDS011;53704;52.532;6.426;2023-04-24T12:15:58;4.85;;;1.60;;
63005;SDS011;53704;52.532;6.426;2023-04-24T12:18:24;4.28;;;1.60;;
63005;SDS011;53704;52.532;6.426;2023-04-24T12:20:49;3.03;;;1.20;;
63005;SDS011;53704;52.532;6.426;2023-04-24T12:23:32;4.00;;;1.10;;
63005;SDS011;53704;52.532;6.426;2023-04-24T12:26:03;3.05;;;0.93;;
63005;SDS011;53704;52.532;6.426;2023-04-24T12:28:34;2.28;;;0.93;;
63005;SDS011;53704;52.532;6.426;2023-04-24T12:31:01;4.55;;;1.30;;
63005;SDS011;53704;52.532;6.426;2023-04-24T12:33:27;5.93;;;1.30;;
63005;SDS011;53704;52.532;6.426;2023-04-24T12:35:52;3.33;;;1.27;;
63005;SDS011;53704;52.532;6.426;2023-04-24T12:38:23;2.92;;;0.90;;
63005;SDS011;53704;52.532;6.426;2023-04-24T12:41:01;6.57;;;0.90;;
63005;SDS011;53704;52.532;6.426;2023-04-24T12:43:30;5.85;;;1.20;;
63005;SDS011;53704;52.532;6.426;2023-04-24T12:45:56;5.53;;;1.38;;
63005;SDS011;53704;52.532;6.426;2023-04-24T12:48:22;2.75;;;1.20;;
63005;SDS011;53704;52.532;6.426;2023-04-24T12:50:47;8.55;;;1.50;;
63005;SDS011;53704;52.532;6.426;2023-04-24T12:53:13;10.50;;;1.50;;
63005;SDS011;53704;52.532;6.426;2023-04-24T12:55:40;7.55;;;1.70;;
63005;SDS011;53704;52.532;6.426;2023-04-24T12:58:05;3.55;;;1.48;;
63005;SDS011;53704;52.532;6.426;2023-04-24T13:00:31;7.68;;;1.48;;
63005;SDS011;53704;52.532;6.426;2023-04-24T13:02:56;14.80;;;2.13;;
63005;SDS011;53704;52.532;6.426;2023-04-24T13:05:22;8.43;;;1.65;;
63005;SDS011;53704;52.532;6.426;2023-04-24T13:07:47;4.55;;;1.63;;
63005;SDS011;53704;52.532;6.426;2023-04-24T13:10:13;12.98;;;1.88;;
63005;SDS011;53704;52.532;6.426;2023-04-24T13:12:38;6.57;;;1.75;;
63005;SDS011;53704;52.532;6.426;2023-04-24T13:15:05;8.65;;;1.80;;
63005;SDS011;53704;52.532;6.426;2023-04-24T13:17:31;9.93;;;1.92;;
63005;SDS011;53704;52.532;6.426;2023-04-24T13:19:57;11.93;;;1.67;;
63005;SDS011;53704;52.532;6.426;2023-04-24T13:22:22;9.70;;;1.83;;
63005;SDS011;53704;52.532;6.426;2023-04-24T13:24:48;3.53;;;1.63;;
63005;SDS011;53704;52.532;6.426;2023-04-24T13:27:16;5.80;;;1.33;;
63005;SDS011;53704;52.532;6.426;2023-04-24T13:29:42;4.13;;;1.13;;
63005;SDS011;53704;52.532;6.426;2023-04-24T13:32:08;5.75;;;0.95;;
63005;SDS011;53704;52.532;6.426;2023-04-24T13:34:34;2.03;;;0.70;;
63005;SDS011;53704;52.532;6.426;2023-04-24T13:37:00;4.88;;;1.08;;
63005;SDS011;53704;52.532;6.426;2023-04-24T13:39:26;1.75;;;0.80;;
63005;SDS011;53704;52.532;6.426;2023-04-24T13:41:52;8.20;;;1.33;;
63005;SDS011;53704;52.532;6.426;2023-04-24T13:44:19;2.33;;;0.70;;
63005;SDS011;53704;52.532;6.426;2023-04-24T13:46:46;3.90;;;0.90;;
63005;SDS011;53704;52.532;6.426;2023-04-24T13:49:14;6.20;;;1.63;;
63005;SDS011;53704;52.532;6.426;2023-04-24T13:51:40;6.50;;;1.35;;
63005;SDS011;53704;52.532;6.426;2023-04-24T13:54:07;3.38;;;1.10;;
63005;SDS011;53704;52.532;6.426;2023-04-24T13:56:33;9.85;;;1.30;;
63005;SDS011;53704;52.532;6.426;2023-04-24T13:58:58;1.50;;;0.95;;
63005;SDS011;53704;52.532;6.426;2023-04-24T14:01:24;7.95;;;1.88;;
63005;SDS011;53704;52.532;6.426;2023-04-24T14:03:50;7.07;;;1.50;;
63005;SDS011;53704;52.532;6.426;2023-04-24T14:06:17;52.92;;;22.27;;
63005;SDS011;53704;52.532;6.426;2023-04-24T14:08:43;9.23;;;1.95;;
63005;SDS011;53704;52.532;6.426;2023-04-24T14:11:08;8.25;;;1.85;;
63005;SDS011;53704;52.532;6.426;2023-04-24T14:13:35;9.48;;;2.40;;
63005;SDS011;53704;52.532;6.426;2023-04-24T14:16:02;9.38;;;2.30;;
63005;SDS011;53704;52.532;6.426;2023-04-24T14:18:28;11.52;;;2.03;;
63005;SDS011;53704;52.532;6.426;2023-04-24T14:20:53;6.93;;;1.85;;
63005;SDS011;53704;52.532;6.426;2023-04-24T14:23:19;12.00;;;2.28;;
63005;SDS011;53704;52.532;6.426;2023-04-24T14:25:45;11.50;;;1.98;;
63005;SDS011;53704;52.532;6.426;2023-04-24T14:28:11;5.22;;;1.55;;
63005;SDS011;53704;52.532;6.426;2023-04-24T14:30:36;8.93;;;1.90;;
63005;SDS011;53704;52.532;6.426;2023-04-24T14:33:02;3.60;;;1.48;;
63005;SDS011;53704;52.532;6.426;2023-04-24T14:35:29;8.35;;;2.20;;
63005;SDS011;53704;52.532;6.426;2023-04-24T14:37:56;6.63;;;1.88;;
63005;SDS011;53704;52.532;6.426;2023-04-24T14:40:22;9.32;;;2.20;;
63005;SDS011;53704;52.532;6.426;2023-04-24T14:42:47;9.40;;;2.13;;
63005;SDS011;53704;52.532;6.426;2023-04-24T14:45:12;10.25;;;2.92;;
63005;SDS011;53704;52.532;6.426;2023-04-24T14:47:38;10.02;;;3.10;;
63005;SDS011;53704;52.532;6.426;2023-04-24T14:50:06;12.02;;;2.60;;
63005;SDS011;53704;52.532;6.426;2023-04-24T14:52:33;9.80;;;2.83;;
63005;SDS011;53704;52.532;6.426;2023-04-24T14:54:58;12.48;;;3.13;;